Time;durP1;ratioP1;P1;durP2;ratioP2;P2;SDS_P1;SDS_P2;PMS_P1;PMS_P2;Temp;Humidity;BMP_temperature;BMP_pressure;BME280_temperature;BME280_humidity;BME280_pressure;Samples;Min_cycle;Max_cycle;Signal;HPM_P1;HPM_P2
2023/05/25 00:02:03;;;;;;;10.37;6.70;;;11.80;1.00;;;;;;5018792;28;20509;-83
2023/05/25 00:04:33;;;;;;;7.83;6.20;;;11.40;1.00;;;;;;5006172;28;20452;-84
2023/05/25 00:07:00;;;;;;;11.40;7.30;;;11.70;99.90;;;;;;5006532;28;20491;-83
2023/05/25 00:09:28;;;;;;;13.30;6.77;;;11.70;99.90;;;;;;5005748;28;20449;-84
2023/05/25 00:11:55;;;;;;;9.70;7.00;;;11.70;99.90;;;;;;5014698;28;20473;-83
2023/05/25 00:14:22;;;;;;;10.63;7.27;;;11.70;99.90;;;;;;5019754;28;20496;-83
2023/05/25 00:16:50;;;;;;;8.40;6.87;;;11.70;99.90;;;;;;5006956;28;20481;-83
2023/05/25 00:19:17;;;;;;;9.03;6.60;;;11.70;1.00;;;;;;5003796;28;20460;-83
2023/05/25 00:21:47;;;;;;;8.90;6.33;;;11.70;1.00;;;;;;5009661;28;20524;-83
2023/05/25 00:24:14;;;;;;;8.90;6.27;;;11.70;99.90;;;;;;5009965;28;20468;-83
2023/05/25 00:26:42;;;;;;;9.87;6.17;;;11.70;1.00;;;;;;5009748;28;20477;-83
2023/05/25 00:29:09;;;;;;;7.50;5.77;;;11.80;1.00;;;;;;5013403;28;20521;-83
2023/05/25 00:31:36;;;;;;;13.20;6.63;;;12.00;37.30;;;;;;5018311;28;20545;-82
2023/05/25 00:34:03;;;;;;;8.50;6.47;;;11.30;50.40;;;;;;5015018;28;20484;-82
2023/05/25 00:36:30;;;;;;;11.87;6.60;;;11.60;1.00;;;;;;5003986;28;20491;-82
2023/05/25 00:38:57;;;;;;;8.80;5.97;;;11.50;99.90;;;;;;5002954;28;20481;-82
2023/05/25 00:41:25;;;;;;;12.03;5.97;;;11.50;99.90;;;;;;5002529;28;20532;-82
2023/05/25 00:43:53;;;;;;;8.63;6.00;;;11.90;1.00;;;;;;5002050;28;20468;-83
2023/05/25 00:46:21;;;;;;;8.27;6.23;;;11.60;99.90;;;;;;5003312;28;20556;-83
2023/05/25 00:48:47;;;;;;;11.73;6.40;;;11.60;1.00;;;;;;5003698;28;20456;-84
2023/05/25 00:51:15;;;;;;;7.70;6.20;;;11.60;1.00;;;;;;5003330;28;20448;-83
2023/05/25 00:53:42;;;;;;;14.23;7.03;;;11.60;1.00;;;;;;5003227;28;20472;-84
2023/05/25 00:56:15;;;;;;;9.17;5.50;;;11.50;99.90;;;;;;5004165;28;20453;-83
2023/05/25 00:58:44;;;;;;;12.00;6.60;;;11.50;99.90;;;;;;5004284;28;20508;-82
2023/05/25 01:01:15;;;;;;;9.17;6.77;;;11.60;1.00;;;;;;5002933;28;20453;-83
2023/05/25 01:03:44;;;;;;;8.57;5.43;;;11.60;99.90;;;;;;5003331;28;20527;-84
2023/05/25 01:06:14;;;;;;;10.13;7.00;;;11.50;99.90;;;;;;4997114;28;20544;-84
2023/05/25 01:08:47;;;;;;;9.00;5.80;;;11.40;99.90;;;;;;4997516;28;20429;-84
2023/05/25 01:11:15;;;;;;;9.80;6.10;;;11.40;99.90;;;;;;4998548;28;20459;-83
2023/05/25 01:13:43;;;;;;;11.60;6.60;;;11.40;99.90;;;;;;4999012;28;20477;-83
2023/05/25 01:16:10;;;;;;;10.60;5.77;;;11.20;1.00;;;;;;4999451;28;20451;-82
2023/05/25 01:18:40;;;;;;;7.50;5.77;;;11.70;1.00;;;;;;5000067;28;20559;-83
2023/05/25 01:21:13;;;;;;;9.87;6.10;;;11.40;1.00;;;;;;5003176;28;20536;-82
2023/05/25 01:23:46;;;;;;;7.60;6.07;;;11.40;99.90;;;;;;5002856;28;20482;-82
2023/05/25 01:26:17;;;;;;;8.00;6.13;;;11.40;99.90;;;;;;5003538;28;20441;-82
2023/05/25 01:28:49;;;;;;;11.23;5.33;;;11.40;1.00;;;;;;5005891;28;20429;-82
2023/05/25 01:31:20;;;;;;;11.40;6.80;;;11.40;1.00;;;;;;5004474;28;20437;-82
2023/05/25 01:33:49;;;;;;;12.50;6.77;;;11.30;99.90;;;;;;5005492;28;20496;-82
2023/05/25 01:36:17;;;;;;;11.87;6.40;;;11.30;1.00;;;;;;5004806;28;20453;-83
2023/05/25 01:38:44;;;;;;;9.00;6.33;;;11.30;1.00;;;;;;5004683;28;20943;-83
2023/05/25 01:41:11;;;;;;;7.73;6.53;;;11.20;1.00;;;;;;5003820;28;20983;-82
2023/05/25 01:43:38;;;;;;;11.83;6.27;;;11.30;1.00;;;;;;5020353;28;20523;-82
2023/05/25 01:46:12;;;;;;;8.30;6.20;;;11.30;99.90;;;;;;5021153;28;20477;-83
2023/05/25 01:48:49;;;;;;;6.83;5.80;;;11.30;1.00;;;;;;5009981;28;20463;-83
2023/05/25 01:51:28;;;;;;;11.20;5.97;;;11.30;1.00;;;;;;5005177;28;20452;-83
2023/05/25 01:54:00;;;;;;;9.40;6.53;;;11.30;1.00;;;;;;5011102;28;20531;-83
2023/05/25 01:56:28;;;;;;;10.80;7.67;;;11.20;1.00;;;;;;5003821;28;20437;-83
2023/05/25 01:58:58;;;;;;;8.93;6.00;;;11.20;1.00;;;;;;5002395;28;20527;-83
2023/05/25 02:01:26;;;;;;;11.27;6.47;;;11.10;1.00;;;;;;5012646;28;20428;-83
2023/05/25 02:03:53;;;;;;;9.70;6.30;;;11.20;1.00;;;;;;5020801;28;20465;-83
2023/05/25 02:06:21;;;;;;;12.13;6.70;;;10.90;1.00;;;;;;5020559;28;20468;-83
2023/05/25 02:08:48;;;;;;;8.13;6.90;;;11.10;1.00;;;;;;5017591;28;20441;-83
2023/05/25 02:11:15;;;;;;;10.93;6.83;;;11.10;1.00;;;;;;5005121;28;20449;-83
2023/05/25 02:13:42;;;;;;;6.97;6.27;;;11.10;1.00;;;;;;5007604;28;20472;-82
2023/05/25 02:16:09;;;;;;;6.93;6.00;;;11.10;1.00;;;;;;5010959;28;20476;-81
2023/05/25 02:18:36;;;;;;;7.37;6.67;;;11.00;1.00;;;;;;5004152;28;20484;-82
2023/05/25 02:21:03;;;;;;;9.67;6.40;;;11.30;39.00;;;;;;5003874;28;20825;-81
2023/05/25 02:23:31;;;;;;;11.40;6.73;;;11.00;1.00;;;;;;5004156;28;20582;-82
2023/05/25 02:25:58;;;;;;;15.53;7.57;;;11.00;1.00;;;;;;5004161;28;20457;-81
2023/05/25 02:28:25;;;;;;;12.90;7.00;;;11.00;1.00;;;;;;5006794;28;20449;-81
2023/05/25 02:30:52;;;;;;;11.23;6.80;;;10.90;1.00;;;;;;5012163;28;20483;-81
2023/05/25 02:33:19;;;;;;;9.60;5.97;;;10.90;1.00;;;;;;5013724;28;20488;-81
2023/05/25 02:35:46;;;;;;;15.97;7.30;;;10.90;20.10;;;;;;5015391;28;20451;-82
2023/05/25 02:38:13;;;;;;;10.27;7.63;;;10.90;99.90;;;;;;5015301;28;20505;-81
2023/05/25 02:40:41;;;;;;;13.40;7.23;;;10.80;97.50;;;;;;5013815;28;20520;-81
2023/05/25 02:43:08;;;;;;;7.87;6.47;;;10.80;99.90;;;;;;5007039;28;20564;-82
2023/05/25 02:45:35;;;;;;;11.97;7.50;;;10.70;99.90;;;;;;5004174;28;20448;-82
2023/05/25 02:48:02;;;;;;;7.73;6.03;;;10.70;99.90;;;;;;5007257;28;20453;-81
2023/05/25 02:50:29;;;;;;;10.60;6.90;;;10.60;1.00;;;;;;5007802;28;20833;-81
2023/05/25 02:52:56;;;;;;;9.67;6.60;;;10.60;1.00;;;;;;5003670;28;20475;-81
2023/05/25 02:55:24;;;;;;;15.57;7.00;;;10.60;1.00;;;;;;5004916;28;20492;-81
2023/05/25 02:57:53;;;;;;;10.27;6.77;;;10.60;1.00;;;;;;5006846;28;20488;-81
2023/05/25 03:00:20;;;;;;;7.47;6.70;;;10.60;76.30;;;;;;5004602;28;20529;-81
2023/05/25 03:02:47;;;;;;;13.10;7.20;;;10.60;99.90;;;;;;5005048;28;20960;-82
2023/05/25 03:05:14;;;;;;;8.90;6.40;;;10.70;79.50;;;;;;5003115;28;20552;-82
2023/05/25 03:07:42;;;;;;;7.67;6.40;;;10.70;1.00;;;;;;5002423;28;20437;-82
2023/05/25 03:10:24;;;;;;;9.03;7.00;;;10.70;31.20;;;;;;5002092;28;20445;-85
2023/05/25 03:12:52;;;;;;;11.40;6.83;;;10.70;92.10;;;;;;5002433;28;20496;-83
2023/05/25 03:15:19;;;;;;;16.03;6.67;;;10.60;99.90;;;;;;5002742;28;20957;-84
2023/05/25 03:17:45;;;;;;;11.00;7.23;;;10.70;99.90;;;;;;5003287;28;20476;-84
2023/05/25 03:20:14;;;;;;;10.27;6.80;;;10.70;99.90;;;;;;5019309;28;20464;-83
2023/05/25 03:22:41;;;;;;;11.47;7.40;;;10.70;99.90;;;;;;5015411;28;20481;-83
2023/05/25 03:25:11;;;;;;;12.47;7.53;;;10.70;99.90;;;;;;5013964;28;20460;-84
2023/05/25 03:27:38;;;;;;;10.43;7.23;;;10.80;99.90;;;;;;5019599;28;20449;-81
2023/05/25 03:30:07;;;;;;;9.07;7.50;;;10.80;99.90;;;;;;5018818;28;20532;-82
2023/05/25 03:32:35;;;;;;;11.03;7.37;;;10.80;99.90;;;;;;5010902;28;20523;-82
2023/05/25 03:35:01;;;;;;;10.80;7.40;;;10.80;99.90;;;;;;5003420;28;20456;-82
2023/05/25 03:37:28;;;;;;;11.77;7.40;;;10.90;99.90;;;;;;5003327;28;20457;-82
2023/05/25 03:39:55;;;;;;;9.70;7.10;;;10.90;99.90;;;;;;5003752;28;20491;-81
2023/05/25 03:42:22;;;;;;;14.03;7.60;;;10.90;99.90;;;;;;5003836;28;20472;-83
2023/05/25 03:44:49;;;;;;;9.33;7.27;;;11.00;99.90;;;;;;5003513;28;20509;-82
2023/05/25 03:47:17;;;;;;;9.70;7.40;;;11.00;99.90;;;;;;5003018;28;20453;-83
2023/05/25 03:49:44;;;;;;;9.80;7.33;;;11.00;99.90;;;;;;5003642;28;20449;-83
2023/05/25 03:52:11;;;;;;;10.40;6.87;;;11.00;1.00;;;;;;5003595;28;20500;-81
2023/05/25 03:54:38;;;;;;;9.97;7.40;;;11.00;1.00;;;;;;5003449;28;20455;-82
2023/05/25 03:57:05;;;;;;;8.80;7.10;;;11.00;99.90;;;;;;4999655;28;20861;-83
2023/05/25 03:59:32;;;;;;;11.77;7.97;;;11.00;99.90;;;;;;4999489;28;20628;-82
2023/05/25 04:01:59;;;;;;;10.23;6.97;;;10.80;1.00;;;;;;5001358;28;20444;-83
2023/05/25 04:04:28;;;;;;;12.17;8.30;;;;;;;;;;5008703;28;20971;-83
2023/05/25 04:06:57;;;;;;;10.13;7.50;;;11.00;1.00;;;;;;5014600;28;20456;-82
2023/05/25 04:09:24;;;;;;;13.80;7.40;;;11.10;1.00;;;;;;5016205;28;20452;-83
2023/05/25 04:11:51;;;;;;;11.70;8.17;;;11.10;1.00;;;;;;5001300;28;20456;-83
2023/05/25 04:14:19;;;;;;;15.43;8.63;;;11.10;1.00;;;;;;5001244;28;20475;-83
2023/05/25 04:16:46;;;;;;;10.90;7.10;;;11.10;1.00;;;;;;5000517;28;20548;-84
2023/05/25 04:19:13;;;;;;;18.87;8.60;;;11.20;1.00;;;;;;5005513;28;20568;-84
2023/05/25 04:21:41;;;;;;;13.30;7.70;;;11.30;1.00;;;;;;5006214;28;20445;-83
2023/05/25 04:24:08;;;;;;;10.47;7.53;;;12.30;1.00;;;;;;5008345;28;20544;-83
2023/05/25 04:26:35;;;;;;;14.57;8.13;;;11.40;99.90;;;;;;5007720;28;20813;-82
2023/05/25 04:29:01;;;;;;;14.27;8.37;;;11.50;99.90;;;;;;5014773;28;20461;-82
2023/05/25 04:31:28;;;;;;;16.03;10.83;;;11.50;99.90;;;;;;5010916;28;20472;-83
2023/05/25 04:33:57;;;;;;;14.50;8.37;;;11.50;1.00;;;;;;5000978;28;20473;-83
2023/05/25 04:36:25;;;;;;;13.17;8.60;;;11.60;1.00;;;;;;4997659;28;20839;-83
2023/05/25 04:38:54;;;;;;;13.20;9.63;;;11.70;99.90;;;;;;4998002;28;20846;-83
2023/05/25 04:41:21;;;;;;;17.03;10.10;;;11.60;99.90;;;;;;4999250;28;20457;-84
2023/05/25 04:43:49;;;;;;;15.23;10.27;;;11.60;99.90;;;;;;4997632;28;20500;-84
2023/05/25 04:46:16;;;;;;;11.60;8.00;;;11.70;99.90;;;;;;4999006;28;20453;-85
2023/05/25 04:48:44;;;;;;;10.80;8.33;;;11.80;99.90;;;;;;5009052;28;20453;-85
2023/05/25 04:51:11;;;;;;;17.27;9.67;;;11.90;99.90;;;;;;5008372;28;20520;-84
2023/05/25 04:53:38;;;;;;;12.07;9.03;;;11.90;99.90;;;;;;5008969;28;20496;-84
2023/05/25 04:56:06;;;;;;;16.77;9.67;;;11.90;99.90;;;;;;5004948;28;20476;-84
2023/05/25 04:58:34;;;;;;;17.93;9.53;;;11.90;99.90;;;;;;5008624;28;20487;-85
2023/05/25 05:01:01;;;;;;;21.70;10.60;;;12.10;49.30;;;;;;5010506;28;20504;-84
2023/05/25 05:03:27;;;;;;;14.83;9.37;;;11.40;99.90;;;;;;4999163;28;20503;-84
2023/05/25 05:05:54;;;;;;;12.93;9.57;;;12.10;1.70;;;;;;4998644;28;20480;-84
2023/05/25 05:08:21;;;;;;;18.57;9.13;;;12.10;99.90;;;;;;4998903;28;21026;-84
2023/05/25 05:10:48;;;;;;;14.47;9.40;;;12.20;19.50;;;;;;5016200;28;20467;-83
2023/05/25 05:13:16;;;;;;;17.27;10.10;;;12.30;1.00;;;;;;5018814;28;20476;-84
2023/05/25 05:15:43;;;;;;;17.10;10.50;;;12.30;99.90;;;;;;5010897;28;20500;-85
2023/05/25 05:18:11;;;;;;;16.47;9.43;;;12.50;1.00;;;;;;5000451;28;20455;-84
2023/05/25 05:20:38;;;;;;;23.13;11.90;;;12.50;99.90;;;;;;4997030;28;20455;-84
2023/05/25 05:23:05;;;;;;;16.90;9.33;;;12.50;99.90;;;;;;5020697;23;20560;-83
2023/05/25 05:25:32;;;;;;;17.67;10.40;;;;;;;;;;4999329;28;20520;-83
2023/05/25 05:27:59;;;;;;;24.67;11.23;;;12.70;99.90;;;;;;4999276;28;20451;-83
2023/05/25 05:30:27;;;;;;;12.33;9.83;;;12.70;99.90;;;;;;5000002;28;20512;-84
2023/05/25 05:32:54;;;;;;;19.50;10.07;;;12.90;99.90;;;;;;4999934;28;21067;-82
2023/05/25 05:35:21;;;;;;;18.03;11.20;;;13.00;99.90;;;;;;5002000;28;20531;-84
2023/05/25 05:37:48;;;;;;;11.67;10.10;;;13.20;99.90;;;;;;5009090;28;20445;-81
2023/05/25 05:40:15;;;;;;;18.00;9.43;;;13.10;1.00;;;;;;5009087;28;20515;-83
2023/05/25 05:42:42;;;;;;;19.57;11.70;;;13.10;99.90;;;;;;5003466;28;20480;-83
2023/05/25 05:45:09;;;;;;;14.53;9.90;;;13.10;1.00;;;;;;5005105;28;20456;-83
2023/05/25 05:47:38;;;;;;;12.40;9.40;;;13.20;1.00;;;;;;5001664;28;20507;-83
2023/05/25 05:50:06;;;;;;;24.10;10.90;;;13.30;99.90;;;;;;5008243;28;20472;-83
2023/05/25 05:52:33;;;;;;;22.10;13.70;;;13.80;1.00;;;;;;5014092;28;20484;-82
2023/05/25 05:54:59;;;;;;;18.63;10.33;;;13.20;99.90;;;;;;5016293;28;20449;-82
2023/05/25 05:57:27;;;;;;;17.60;10.57;;;;;;;;;;5013915;28;20469;-82
2023/05/25 05:59:54;;;;;;;16.03;8.90;;;13.60;99.90;;;;;;5014204;28;20507;-82
2023/05/25 06:02:21;;;;;;;20.43;11.40;;;13.60;1.00;;;;;;5014082;28;20971;-82
2023/05/25 06:04:49;;;;;;;15.17;10.80;;;13.70;10.80;;;;;;5007285;28;20468;-83
2023/05/25 06:07:16;;;;;;;16.30;10.50;;;13.70;1.00;;;;;;5006686;28;20536;-83
2023/05/25 06:09:42;;;;;;;18.13;10.03;;;13.70;1.00;;;;;;5005693;28;20584;-84
2023/05/25 06:12:09;;;;;;;16.33;9.70;;;13.80;1.00;;;;;;5003478;28;20818;-83
2023/05/25 06:14:36;;;;;;;15.70;10.30;;;13.80;1.00;;;;;;5008633;28;20523;-83
2023/05/25 06:17:03;;;;;;;14.80;10.03;;;13.90;1.00;;;;;;5004717;28;20508;-83
2023/05/25 06:19:30;;;;;;;16.73;9.73;;;14.00;1.00;;;;;;5004381;28;20484;-83
2023/05/25 06:21:58;;;;;;;18.60;9.67;;;14.00;1.00;;;;;;5003497;28;20951;-83
2023/05/25 06:24:25;;;;;;;15.70;9.00;;;14.10;99.90;;;;;;5002509;28;20508;-83
2023/05/25 06:26:52;;;;;;;17.33;10.40;;;14.10;99.90;;;;;;5002381;28;20480;-83
2023/05/25 06:29:19;;;;;;;17.27;9.70;;;14.00;23.90;;;;;;5003575;28;20445;-83
2023/05/25 06:31:46;;;;;;;19.23;10.00;;;14.30;1.00;;;;;;5002805;28;20453;-83
2023/05/25 06:34:12;;;;;;;21.97;11.20;;;14.40;99.90;;;;;;5002690;28;20996;-83
2023/05/25 06:36:39;;;;;;;15.53;8.63;;;14.50;99.90;;;;;;5012516;28;20503;-82
2023/05/25 06:39:11;;;;;;;17.63;9.93;;;14.60;99.90;;;;;;5017855;28;20481;-84
2023/05/25 06:41:39;;;;;;;18.47;11.97;;;14.80;1.00;;;;;;5012697;28;20445;-83
2023/05/25 06:44:09;;;;;;;11.13;9.03;;;14.90;99.90;;;;;;5007120;28;20497;-83
2023/05/25 06:46:49;;;;;;;14.00;7.53;;;14.90;89.70;;;;;;5016487;28;20456;-84
2023/05/25 06:49:16;;;;;;;18.53;8.57;;;15.00;99.90;;;;;;5007667;28;20468;-84
2023/05/25 06:51:46;;;;;;;19.57;8.87;;;15.30;99.90;;;;;;5015535;28;20472;-84
2023/05/25 06:54:15;;;;;;;14.47;9.20;;;15.10;1.00;;;;;;5019718;28;20465;-83
2023/05/25 06:56:42;;;;;;;17.50;8.23;;;15.10;1.00;;;;;;5007927;28;20547;-83
2023/05/25 06:59:10;;;;;;;16.97;8.10;;;15.20;1.00;;;;;;5003143;28;20929;-84
2023/05/25 07:01:37;;;;;;;11.70;6.73;;;14.90;1.00;;;;;;5003612;28;21042;-84
2023/05/25 07:04:27;;;;;;;9.43;6.70;;;15.30;1.00;;;;;;5001944;28;20830;-85
2023/05/25 07:06:54;;;;;;;16.57;7.50;;;15.30;1.00;;;;;;5003622;28;20539;-84
2023/05/25 07:09:22;;;;;;;14.93;7.00;;;15.40;99.00;;;;;;5013147;28;20504;-83
2023/05/25 07:11:49;;;;;;;10.20;6.20;;;15.40;1.00;;;;;;5014552;28;20460;-81
2023/05/25 07:14:17;;;;;;;8.20;6.10;;;15.50;1.00;;;;;;5004201;28;20556;-84
2023/05/25 07:16:44;;;;;;;10.87;6.17;;;15.60;1.00;;;;;;5003134;28;20539;-86
2023/05/25 07:19:11;;;;;;;13.10;6.03;;;15.60;1.00;;;;;;5006098;28;20507;-84
2023/05/25 07:21:38;;;;;;;13.57;5.73;;;15.70;1.00;;;;;;5006016;28;20455;-84
2023/05/25 07:24:05;;;;;;;10.20;6.10;;;15.80;1.00;;;;;;5004303;28;21050;-83
2023/05/25 07:26:35;;;;;;;11.27;6.10;;;15.90;1.00;;;;;;5004115;28;20463;-83
2023/05/25 07:29:02;;;;;;;11.03;5.13;;;15.90;1.00;;;;;;5004286;28;20797;-83
2023/05/25 07:31:29;;;;;;;10.30;6.60;;;15.90;99.90;;;;;;5004352;28;20441;-83
2023/05/25 07:33:55;;;;;;;15.00;6.10;;;16.00;1.00;;;;;;5004602;28;20536;-83
2023/05/25 07:36:23;;;;;;;14.90;5.60;;;15.70;1.00;;;;;;5005419;28;20448;-83
2023/05/25 07:38:50;;;;;;;12.33;7.00;;;16.00;1.00;;;;;;5003808;28;20511;-83
2023/05/25 07:41:17;;;;;;;7.30;5.80;;;16.10;1.00;;;;;;5004951;28;20455;-84
2023/05/25 07:43:45;;;;;;;8.70;6.40;;;16.20;1.00;;;;;;5004825;28;20466;-83
2023/05/25 07:46:12;;;;;;;14.07;6.50;;;16.30;1.00;;;;;;5003868;28;20441;-83
2023/05/25 07:48:39;;;;;;;14.47;7.40;;;16.40;99.90;;;;;;5004188;28;20453;-84
2023/05/25 07:51:06;;;;;;;10.73;5.47;;;16.50;99.90;;;;;;5004559;28;20974;-83
2023/05/25 07:53:33;;;;;;;9.77;5.90;;;16.20;99.90;;;;;;5002906;28;20469;-83
2023/05/25 07:55:59;;;;;;;8.73;5.00;;;16.20;99.90;;;;;;5004316;28;20543;-83
2023/05/25 07:58:26;;;;;;;9.43;5.30;;;16.10;99.90;;;;;;5004875;28;20624;-83
2023/05/25 08:00:55;;;;;;;12.80;5.27;;;16.20;99.90;;;;;;5003519;28;20494;-83
2023/05/25 08:03:22;;;;;;;10.50;5.67;;;16.20;99.90;;;;;;5004666;28;20495;-83
2023/05/25 08:05:49;;;;;;;10.57;5.57;;;;;;;;;;5004924;28;20536;-83
2023/05/25 08:08:16;;;;;;;8.57;3.83;;;16.30;99.90;;;;;;5012212;28;20479;-83
2023/05/25 08:10:44;;;;;;;10.83;5.00;;;16.40;99.90;;;;;;5001386;28;20452;-83
2023/05/25 08:13:11;;;;;;;9.97;5.23;;;16.60;99.90;;;;;;5003572;28;20602;-83
2023/05/25 08:15:38;;;;;;;7.10;4.57;;;16.70;99.90;;;;;;5009028;28;20520;-82
2023/05/25 08:18:06;;;;;;;7.20;4.20;;;16.70;99.90;;;;;;5018719;28;20503;-83
2023/05/25 08:20:33;;;;;;;14.70;4.93;;;16.60;1.00;;;;;;5008581;28;20507;-83
2023/05/25 08:23:00;;;;;;;8.23;5.20;;;16.90;99.90;;;;;;5010163;28;20472;-83
2023/05/25 08:25:27;;;;;;;7.23;5.10;;;;;;;;;;5017223;28;20421;-82
2023/05/25 08:27:54;;;;;;;8.07;5.67;;;17.10;99.90;;;;;;5011301;28;20448;-83
2023/05/25 08:30:21;;;;;;;9.37;4.97;;;17.10;99.90;;;;;;5008867;28;20448;-83
2023/05/25 08:32:48;;;;;;;13.57;6.60;;;16.90;99.90;;;;;;5011303;28;20477;-83
2023/05/25 08:35:16;;;;;;;20.27;6.13;;;16.80;99.90;;;;;;5011477;28;20508;-84
2023/05/25 08:37:43;;;;;;;13.30;5.90;;;16.70;99.90;;;;;;5009064;28;20472;-83
2023/05/25 08:40:15;;;;;;;17.87;7.10;;;16.80;99.90;;;;;;5008192;28;20468;-83
2023/05/25 08:42:43;;;;;;;8.60;5.80;;;16.60;1.00;;;;;;5012150;28;20441;-83
2023/05/25 08:45:10;;;;;;;6.33;5.53;;;16.80;99.90;;;;;;5008844;28;20528;-82
2023/05/25 08:47:41;;;;;;;7.03;5.40;;;17.10;1.00;;;;;;5009394;28;20445;-83
2023/05/25 08:50:10;;;;;;;9.67;5.40;;;16.90;99.90;;;;;;5009920;28;20554;-84
2023/05/25 08:52:40;;;;;;;10.90;5.43;;;16.80;1.00;;;;;;5017394;28;20476;-83
2023/05/25 08:55:09;;;;;;;9.33;5.43;;;16.90;99.90;;;;;;5016186;28;20468;-84
2023/05/25 08:57:44;;;;;;;8.10;4.50;;;17.00;99.90;;;;;;5011494;28;20469;-83
2023/05/25 09:00:14;;;;;;;12.50;5.53;;;17.00;99.90;;;;;;5007456;28;20507;-83
2023/05/25 09:02:48;;;;;;;8.10;4.80;;;16.90;1.00;;;;;;5005671;28;20520;-83
2023/05/25 09:05:15;;;;;;;5.20;4.20;;;17.20;99.90;;;;;;5006144;28;20440;-84
2023/05/25 09:07:44;;;;;;;9.10;5.00;;;17.30;99.90;;;;;;5005260;28;20452;-84
2023/05/25 09:10:11;;;;;;;10.03;4.60;;;17.50;99.90;;;;;;5005283;28;20492;-84
2023/05/25 09:12:39;;;;;;;10.47;4.47;;;18.10;1.00;;;;;;5004765;28;20459;-85
2023/05/25 09:15:07;;;;;;;5.90;4.47;;;17.70;99.90;;;;;;5015352;28;20559;-83
2023/05/25 09:17:34;;;;;;;7.30;4.47;;;18.00;99.90;;;;;;5015730;28;20453;-84
2023/05/25 09:20:01;;;;;;;6.50;5.60;;;;;;;;;;4997184;28;20855;-83
2023/05/25 09:22:28;;;;;;;8.20;4.70;;;17.80;1.00;;;;;;4998791;28;20507;-85
2023/05/25 09:24:56;;;;;;;9.40;4.93;;;18.00;99.90;;;;;;5006401;28;20445;-82
2023/05/25 09:27:24;;;;;;;11.23;7.30;;;17.90;99.90;;;;;;5000941;28;20862;-81
2023/05/25 09:29:51;;;;;;;10.47;5.17;;;17.80;99.90;;;;;;5000223;28;20867;-81
2023/05/25 09:32:19;;;;;;;12.57;5.50;;;17.60;99.90;;;;;;5002274;28;20531;-84
2023/05/25 09:34:47;;;;;;;8.63;4.77;;;17.70;99.90;;;;;;5005051;28;20498;-85
2023/05/25 09:37:15;;;;;;;8.67;5.17;;;18.10;99.90;;;;;;5003715;28;20449;-85
2023/05/25 09:39:42;;;;;;;8.00;4.47;;;18.00;99.90;;;;;;5005023;28;20488;-84
2023/05/25 09:42:11;;;;;;;6.70;4.23;;;18.30;99.90;;;;;;5008156;28;20444;-84
2023/05/25 09:44:38;;;;;;;5.77;4.10;;;18.40;99.90;;;;;;5010388;28;20483;-84
2023/05/25 09:47:05;;;;;;;6.00;4.67;;;18.40;99.90;;;;;;5020069;28;20445;-84
2023/05/25 09:49:33;;;;;;;8.90;4.30;;;18.60;1.00;;;;;;5019540;28;20476;-84
2023/05/25 09:52:00;;;;;;;9.20;5.10;;;18.50;99.90;;;;;;5008905;28;20479;-84
2023/05/25 09:54:29;;;;;;;11.53;5.33;;;18.40;1.00;;;;;;5012519;28;20464;-85
2023/05/25 09:56:56;;;;;;;12.73;5.60;;;18.40;99.90;;;;;;5013235;28;20935;-85
2023/05/25 09:59:24;;;;;;;23.30;6.97;;;18.70;1.00;;;;;;5014071;28;20451;-84
2023/05/25 10:01:52;;;;;;;35.27;8.47;;;18.20;99.90;;;;;;5016417;28;20449;-85
2023/05/25 10:04:22;;;;;;;29.10;7.27;;;18.40;99.90;;;;;;5013319;28;20474;-85
2023/05/25 10:06:49;;;;;;;6.97;4.70;;;18.40;99.90;;;;;;5014418;28;20884;-85
2023/05/25 10:09:18;;;;;;;9.67;5.60;;;18.40;99.90;;;;;;5013368;28;20445;-84
2023/05/25 10:11:46;;;;;;;12.40;5.23;;;18.30;99.90;;;;;;5011407;28;20835;-85
2023/05/25 10:14:16;;;;;;;11.53;6.37;;;18.10;99.90;;;;;;5010347;28;20500;-85
2023/05/25 10:16:48;;;;;;;8.43;5.70;;;18.10;99.90;;;;;;5011066;28;20451;-85
2023/05/25 10:19:20;;;;;;;6.80;4.83;;;17.90;1.00;;;;;;5010428;28;20457;-85
2023/05/25 10:21:56;;;;;;;12.80;5.83;;;18.20;99.90;;;;;;5010849;28;20479;-84
2023/05/25 10:24:30;;;;;;;4.97;4.43;;;18.40;99.90;;;;;;5010129;28;20510;-86
2023/05/25 10:27:00;;;;;;;6.60;4.90;;;18.50;99.90;;;;;;5011654;28;20400;-85
2023/05/25 10:29:28;;;;;;;11.70;5.27;;;18.60;99.90;;;;;;5020181;28;20461;-84
2023/05/25 10:31:58;;;;;;;9.80;6.30;;;18.60;99.90;;;;;;5019943;28;20432;-84
2023/05/25 10:34:26;;;;;;;7.83;5.10;;;18.50;99.90;;;;;;5016283;28;20549;-84
2023/05/25 10:36:54;;;;;;;9.43;5.07;;;18.50;99.90;;;;;;5014265;28;20514;-85
2023/05/25 10:39:23;;;;;;;10.40;5.23;;;18.50;99.90;;;;;;5010847;28;20544;-85
2023/05/25 10:41:52;;;;;;;8.30;4.50;;;18.60;99.90;;;;;;5010814;28;20595;-84
2023/05/25 10:44:20;;;;;;;11.73;4.93;;;18.60;99.90;;;;;;5018824;28;20496;-85
2023/05/25 10:46:48;;;;;;;8.53;6.30;;;18.80;99.90;;;;;;5015764;28;20483;-85
2023/05/25 10:49:27;;;;;;;6.70;5.30;;;18.60;99.90;;;;;;5006353;28;20457;-83
2023/05/25 10:51:59;;;;;;;9.97;4.73;;;18.40;99.90;;;;;;5013257;28;20429;-84
2023/05/25 10:54:29;;;;;;;7.93;5.40;;;18.20;99.90;;;;;;5012265;28;20476;-83
2023/05/25 10:57:09;;;;;;;11.63;6.07;;;18.20;99.90;;;;;;5006544;28;20429;-83
2023/05/25 10:59:37;;;;;;;15.17;6.67;;;;;;;;;;5007269;28;20531;-83
2023/05/25 11:02:06;;;;;;;7.00;5.07;;;18.00;99.90;;;;;;5007476;28;20504;-83
2023/05/25 11:07:57;;;;;;;8.20;5.17;;;17.80;99.90;;;;;;4981760;28;20449;-83
2023/05/25 11:10:42;;;;;;;9.77;6.47;;;17.80;99.90;;;;;;5010208;28;20500;-83
2023/05/25 11:13:34;;;;;;;8.20;5.40;;;17.90;99.90;;;;;;5020227;28;20499;-81
2023/05/25 11:16:19;;;;;;;10.17;5.83;;;18.20;99.90;;;;;;5020298;28;20417;-82
2023/05/25 11:18:50;;;;;;;4.73;4.13;;;18.20;99.90;;;;;;5016064;28;20826;-82
2023/05/25 11:21:23;;;;;;;9.73;5.67;;;18.20;99.90;;;;;;5014738;28;20491;-82
2023/05/25 11:23:56;;;;;;;10.37;6.10;;;18.10;99.90;;;;;;5004743;28;20519;-82
2023/05/25 11:26:24;;;;;;;5.87;5.30;;;18.20;99.90;;;;;;5002600;28;20508;-82
2023/05/25 11:28:52;;;;;;;11.50;6.20;;;18.00;1.00;;;;;;5003258;28;20429;-85
2023/05/25 11:31:29;;;;;;;8.17;5.73;;;18.10;99.90;;;;;;5004064;28;20445;-86
2023/05/25 11:33:57;;;;;;;10.90;6.17;;;18.30;99.90;;;;;;5004471;28;20852;-86
2023/05/25 11:36:25;;;;;;;8.97;6.37;;;18.50;99.90;;;;;;5007657;28;20516;-85
2023/05/25 11:38:54;;;;;;;8.07;5.77;;;18.50;99.90;;;;;;5003454;28;20499;-86
2023/05/25 11:41:22;;;;;;;6.93;5.50;;;18.60;99.90;;;;;;5002981;28;20488;-86
2023/05/25 11:43:49;;;;;;;5.83;5.23;;;18.60;99.90;;;;;;5003775;28;20476;-86
2023/05/25 11:46:20;;;;;;;9.00;6.07;;;18.20;1.00;;;;;;5015567;28;20436;-85
2023/05/25 11:48:51;;;;;;;6.63;5.47;;;18.60;99.90;;;;;;5016554;28;20441;-83
2023/05/25 11:51:20;;;;;;;7.57;6.00;;;18.70;99.90;;;;;;5006872;28;20468;-86
2023/05/25 11:53:47;;;;;;;9.50;7.60;;;18.80;99.90;;;;;;5006038;28;20559;-86
2023/05/25 11:56:17;;;;;;;10.87;8.00;;;18.90;99.90;;;;;;5001911;28;20452;-85
2023/05/25 11:58:47;;;;;;;6.67;5.63;;;19.40;1.00;;;;;;5005353;28;20453;-85
2023/05/25 12:01:15;;;;;;;7.50;5.77;;;18.70;99.90;;;;;;5010546;28;20480;-85
2023/05/25 12:03:43;;;;;;;7.30;5.77;;;18.60;1.00;;;;;;5007109;28;20469;-85
2023/05/25 12:06:22;;;;;;;8.07;6.13;;;18.70;99.90;;;;;;5008819;28;20445;-85
2023/05/25 12:08:49;;;;;;;7.87;6.07;;;18.60;99.90;;;;;;5008297;28;20437;-85
2023/05/25 12:11:18;;;;;;;10.10;7.20;;;18.70;99.90;;;;;;5010303;28;20453;-84
2023/05/25 12:13:45;;;;;;;11.87;6.27;;;18.80;99.90;;;;;;5009099;28;20496;-84
2023/05/25 12:16:11;;;;;;;10.73;5.83;;;19.00;99.90;;;;;;5010649;28;20455;-84
2023/05/25 12:18:38;;;;;;;9.10;6.67;;;19.60;1.00;;;;;;5007023;28;20488;-85
2023/05/25 12:21:07;;;;;;;7.40;5.47;;;19.40;99.90;;;;;;5006038;28;20488;-85
2023/05/25 12:23:34;;;;;;;11.00;6.20;;;19.20;99.90;;;;;;5006983;28;20511;-84
2023/05/25 12:26:10;;;;;;;9.07;6.03;;;19.20;99.90;;;;;;5007785;28;20460;-83
2023/05/25 12:28:38;;;;;;;7.00;6.33;;;19.10;99.90;;;;;;5006981;28;20444;-84
2023/05/25 12:31:22;;;;;;;10.73;6.97;;;19.00;99.90;;;;;;5006280;28;20444;-85
2023/05/25 12:34:03;;;;;;;8.30;6.93;;;18.90;99.90;;;;;;5005940;28;20524;-84
2023/05/25 12:36:41;;;;;;;8.33;7.50;;;18.80;99.90;;;;;;5008692;28;20440;-85
2023/05/25 12:39:11;;;;;;;7.67;6.20;;;18.70;99.90;;;;;;5006670;28;20464;-85
2023/05/25 12:41:59;;;;;;;9.10;6.07;;;18.70;99.90;;;;;;5006349;28;20473;-86
2023/05/25 12:44:30;;;;;;;10.20;6.23;;;18.10;99.90;;;;;;5004027;28;20491;-84
2023/05/25 12:47:09;;;;;;;11.27;6.20;;;18.20;99.90;;;;;;5006628;28;20500;-85
2023/05/25 12:49:36;;;;;;;11.70;7.73;;;18.00;99.90;;;;;;5018150;28;20417;-84
2023/05/25 12:52:04;;;;;;;10.80;7.63;;;18.00;99.90;;;;;;5018419;28;20508;-84
2023/05/25 12:54:43;;;;;;;13.87;7.73;;;18.10;99.90;;;;;;5013766;28;20533;-83
2023/05/25 12:57:11;;;;;;;9.33;7.00;;;18.30;99.90;;;;;;5004691;28;20568;-85